Time;durP1;ratioP1;P1;durP2;ratioP2;P2;SDS_P1;SDS_P2;PMS_P1;PMS_P2;Temp;Humidity;BMP_temperature;BMP_pressure;BME280_temperature;BME280_humidity;BME280_pressure;Samples;Min_cycle;Max_cycle;Signal;HPM_P1;HPM_P2
2023/03/27 00:01:24;;;;;;;1.20;1.10;;;;;;;6.35;100.00;96998.16;5075107;28;20299;-73
2023/03/27 00:03:52;;;;;;;0.70;0.70;;;;;;;6.38;100.00;96999.53;5074973;28;20228;-73
2023/03/27 00:06:19;;;;;;;0.60;0.60;;;;;;;6.29;100.00;96995.56;5075328;28;20296;-71
2023/03/27 00:08:49;;;;;;;0.93;0.90;;;;;;;6.30;100.00;96997.19;5075074;28;20231;-74
2023/03/27 00:11:16;;;;;;;0.90;0.90;;;;;;;6.31;100.00;96996.97;5074794;28;20204;-74
2023/03/27 00:13:43;;;;;;;1.10;1.00;;;;;;;6.30;100.00;97002.47;5075232;28;20224;-74
2023/03/27 00:16:10;;;;;;;1.10;1.10;;;;;;;6.32;100.00;97006.50;5075113;28;20299;-73
2023/03/27 00:18:38;;;;;;;0.80;0.80;;;;;;;6.29;100.00;97014.06;5075292;28;20205;-74
2023/03/27 00:21:05;;;;;;;1.10;1.00;;;;;;;6.30;100.00;97026.22;5075017;28;20303;-74
2023/03/27 00:23:32;;;;;;;1.00;1.00;;;;;;;6.25;100.00;97023.41;5074895;28;20600;-73
2023/03/27 00:25:59;;;;;;;0.93;0.93;;;;;;;6.25;100.00;97024.22;5074646;28;20703;-73
2023/03/27 00:28:29;;;;;;;1.40;1.30;;;;;;;6.23;100.00;97036.00;5074853;28;20208;-72
2023/03/27 00:30:57;;;;;;;1.30;1.20;;;;;;;6.26;100.00;97040.88;5074789;28;20209;-74
2023/03/27 00:33:25;;;;;;;1.40;1.30;;;;;;;6.24;100.00;97041.06;5074427;28;20634;-73
2023/03/27 00:35:52;;;;;;;1.20;1.20;;;;;;;6.24;100.00;97054.28;5074699;28;20213;-74
2023/03/27 00:38:19;;;;;;;1.53;1.40;;;;;;;6.21;100.00;97052.09;5074701;28;20287;-74
2023/03/27 00:40:47;;;;;;;1.30;1.20;;;;;;;6.31;100.00;97055.03;5074626;28;20207;-73
2023/03/27 00:43:29;;;;;;;1.10;1.10;;;;;;;6.23;100.00;97062.41;5074422;28;20252;-73
2023/03/27 00:46:04;;;;;;;0.60;0.60;;;;;;;6.32;100.00;97074.31;5073986;28;20193;-72
2023/03/27 00:48:34;;;;;;;0.77;0.70;;;;;;;6.25;100.00;97078.84;5056358;28;20192;-73
2023/03/27 00:51:02;;;;;;;2.13;0.77;;;;;;;6.21;100.00;97090.84;5074331;28;20212;-72
2023/03/27 00:53:29;;;;;;;0.70;0.70;;;;;;;6.22;100.00;97092.47;5074062;28;20714;-71
2023/03/27 00:56:00;;;;;;;0.73;0.73;;;;;;;6.23;100.00;97096.69;5073923;28;20678;-73
2023/03/27 00:58:33;;;;;;;0.67;0.67;;;;;;;6.18;100.00;97099.19;5073930;28;20534;-72
2023/03/27 01:00:59;;;;;;;0.70;0.70;;;;;;;6.17;100.00;97100.22;5074237;28;20189;-71
2023/03/27 01:03:30;;;;;;;0.70;0.70;;;;;;;6.08;100.00;97096.22;5073642;28;20226;-73
2023/03/27 01:05:59;;;;;;;0.80;0.80;;;;;;;6.06;100.00;97109.63;5074056;28;20189;-72
2023/03/27 01:08:29;;;;;;;0.80;0.80;;;;;;;6.04;100.00;97113.50;5073896;28;20212;-73
2023/03/27 01:11:19;;;;;;;0.90;0.90;;;;;;;6.01;100.00;97111.28;5073883;28;20224;-73
2023/03/27 01:14:07;;;;;;;1.23;1.13;;;;;;;5.97;100.00;97107.47;5073762;28;20273;-73
2023/03/27 01:16:58;;;;;;;1.10;1.10;;;;;;;5.93;100.00;97125.53;5073882;28;20204;-73
2023/03/27 01:19:59;;;;;;;0.90;0.90;;;;;;;5.87;100.00;97134.28;5073969;28;20196;-73
2023/03/27 01:22:47;;;;;;;1.23;0.90;;;;;;;5.92;100.00;97136.31;5056106;28;20221;-73
2023/03/27 01:25:32;;;;;;;0.87;0.80;;;;;;;5.84;100.00;97139.19;5073541;28;20208;-73
2023/03/27 01:28:27;;;;;;;0.70;0.70;;;;;;;5.83;100.00;97154.19;5073664;28;20201;-72
2023/03/27 01:31:13;;;;;;;0.70;0.70;;;;;;;5.82;100.00;97151.75;5064144;28;20209;-73
2023/03/27 01:34:00;;;;;;;0.70;0.70;;;;;;;5.83;100.00;97146.28;5073242;28;20311;-72
2023/03/27 01:36:38;;;;;;;0.70;0.70;;;;;;;5.77;100.00;97159.47;5073256;28;20185;-73
2023/03/27 01:39:29;;;;;;;1.47;0.93;;;;;;;5.80;100.00;97166.97;5073587;28;20193;-72
2023/03/27 01:42:06;;;;;;;2.00;1.00;;;;;;;5.75;100.00;97185.25;5073435;28;20188;-73
2023/03/27 01:44:45;;;;;;;0.90;0.90;;;;;;;5.66;100.00;97183.88;5073528;28;20196;-73
2023/03/27 01:47:51;;;;;;;2.20;1.23;;;;;;;5.58;100.00;97192.00;5056171;28;20373;-72
2023/03/27 01:50:28;;;;;;;1.30;1.20;;;;;;;5.51;100.00;97197.31;5069916;28;20200;-73
2023/03/27 01:53:03;;;;;;;1.40;1.30;;;;;;;5.50;100.00;97206.22;5073315;28;20228;-73
2023/03/27 01:55:35;;;;;;;1.40;1.30;;;;;;;5.47;100.00;97198.72;5073753;28;20204;-71
2023/03/27 01:58:12;;;;;;;3.03;1.47;;;;;;;5.44;100.00;97217.63;5072567;28;20185;-72
2023/03/27 02:00:43;;;;;;;1.43;1.33;;;;;;;5.36;100.00;97230.19;5073095;28;20639;-73
2023/03/27 02:03:15;;;;;;;1.90;1.00;;;;;;;5.30;100.00;97225.75;5073287;28;20232;-71
2023/03/27 02:05:51;;;;;;;1.40;1.10;;;;;;;5.21;100.00;97248.06;5073326;28;20189;-71
2023/03/27 02:08:43;;;;;;;1.30;1.20;;;;;;;5.13;100.00;97237.72;5073180;28;20184;-72
2023/03/27 02:11:10;;;;;;;1.20;1.10;;;;;;;5.09;100.00;97252.31;5056326;28;20580;-72
2023/03/27 02:13:37;;;;;;;1.20;1.20;;;;;;;5.07;100.00;97249.09;5073152;28;20244;-73
2023/03/27 02:16:07;;;;;;;3.57;2.13;;;;;;;4.99;100.00;97259.81;5073114;28;20208;-72
2023/03/27 02:18:40;;;;;;;4.07;2.70;;;;;;;4.90;100.00;97266.31;5073252;28;20207;-72
2023/03/27 02:21:07;;;;;;;3.57;3.00;;;;;;;4.87;100.00;97270.16;5073335;28;20203;-72
2023/03/27 02:23:36;;;;;;;6.77;3.20;;;;;;;4.70;100.00;97276.03;5055184;28;20699;-72
2023/03/27 02:26:03;;;;;;;8.27;3.63;;;;;;;4.70;100.00;97276.81;5073139;28;20214;-71
2023/03/27 02:28:55;;;;;;;8.17;4.73;;;;;;;4.53;100.00;97285.31;5073422;28;20210;-73
2023/03/27 02:31:37;;;;;;;8.20;4.40;;;;;;;4.49;100.00;97305.94;5055438;28;20188;-72
2023/03/27 02:34:20;;;;;;;8.70;4.83;;;;;;;4.42;100.00;97320.91;5072599;28;20673;-72
2023/03/27 02:37:00;;;;;;;4.73;3.83;;;;;;;4.45;100.00;97332.84;5073115;28;20247;-71
2023/03/27 02:39:49;;;;;;;10.43;5.20;;;;;;;4.38;100.00;97340.72;5073042;28;20564;-72
2023/03/27 02:42:25;;;;;;;7.63;4.13;;;;;;;4.34;100.00;97344.75;5072892;28;20221;-71
2023/03/27 02:45:16;;;;;;;12.23;4.50;;;;;;;4.29;100.00;97343.75;5072980;28;20189;-72
2023/03/27 02:47:50;;;;;;;14.20;5.27;;;;;;;4.26;100.00;97355.47;5055173;28;20197;-72
2023/03/27 02:50:26;;;;;;;9.67;5.20;;;;;;;4.21;100.00;97368.38;5073499;28;20211;-72
2023/03/27 02:53:00;;;;;;;13.33;5.30;;;;;;;4.28;100.00;97363.13;5072794;28;20260;-72
2023/03/27 02:55:32;;;;;;;11.93;6.03;;;;;;;4.22;100.00;97372.66;5072965;28;20197;-73
2023/03/27 02:58:04;;;;;;;16.03;6.30;;;;;;;4.24;100.00;97385.59;5072906;28;20276;-73
2023/03/27 03:00:38;;;;;;;10.37;4.73;;;;;;;4.22;100.00;97384.97;5072620;28;20200;-72
2023/03/27 03:03:16;;;;;;;13.77;4.77;;;;;;;4.16;100.00;97391.03;5072819;28;20220;-73
2023/03/27 03:05:43;;;;;;;11.83;5.17;;;;;;;4.17;100.00;97395.28;5072732;28;20197;-72
2023/03/27 03:08:10;;;;;;;14.30;5.63;;;;;;;4.13;100.00;97420.34;5072431;28;20209;-73
2023/03/27 03:10:43;;;;;;;10.00;4.87;;;;;;;4.08;100.00;97410.41;5074958;28;20607;-73
2023/03/27 03:13:10;;;;;;;11.47;4.97;;;;;;;4.12;100.00;97426.63;5075992;28;20224;-73
2023/03/27 03:15:37;;;;;;;16.00;6.03;;;;;;;4.06;100.00;97424.75;5076230;28;20550;-73
2023/03/27 03:18:04;;;;;;;9.37;5.00;;;;;;;4.05;100.00;97426.56;5076128;28;20200;-73
2023/03/27 03:20:30;;;;;;;13.37;4.90;;;;;;;4.04;100.00;97447.81;5076116;28;20204;-72
2023/03/27 03:22:57;;;;;;;11.60;5.40;;;;;;;4.08;100.00;97449.03;5075693;28;20699;-74
2023/03/27 03:25:24;;;;;;;16.80;5.73;;;;;;;3.99;100.00;97452.84;5075946;28;20230;-73
2023/03/27 03:27:57;;;;;;;11.23;5.60;;;;;;;4.03;100.00;97454.06;5075869;28;20244;-74
2023/03/27 03:30:32;;;;;;;11.07;4.37;;;;;;;4.09;100.00;97461.19;5075677;28;20601;-71
2023/03/27 03:32:59;;;;;;;6.33;3.33;;;;;;;4.09;100.00;97466.44;5075539;28;20260;-72
2023/03/27 03:35:26;;;;;;;10.43;4.37;;;;;;;3.99;100.00;97471.25;5075748;28;20609;-72
2023/03/27 03:37:53;;;;;;;13.17;5.80;;;;;;;4.02;100.00;97476.91;5075681;28;20259;-73
2023/03/27 03:40:20;;;;;;;10.53;4.50;;;;;;;4.04;100.00;97482.81;5075581;28;20231;-72
2023/03/27 03:42:51;;;;;;;10.27;3.80;;;;;;;4.04;100.00;97493.34;5075533;28;20758;-73
2023/03/27 03:45:19;;;;;;;14.87;5.07;;;;;;;3.99;100.00;97487.00;5075710;28;20204;-73
2023/03/27 03:47:46;;;;;;;11.90;5.00;;;;;;;3.93;100.00;97504.38;5075562;28;20542;-73
2023/03/27 03:50:13;;;;;;;9.50;4.10;;;;;;;3.96;100.00;97517.13;5075198;28;20599;-73
2023/03/27 03:52:40;;;;;;;13.17;5.27;;;;;;;3.94;100.00;97524.38;5075361;28;20228;-72
2023/03/27 03:55:08;;;;;;;11.03;4.83;;;;;;;3.92;100.00;97529.03;5075462;28;20211;-73
2023/03/27 03:57:35;;;;;;;9.93;3.90;;;;;;;3.94;100.00;97532.28;5076115;28;20210;-74
2023/03/27 04:00:01;;;;;;;7.87;3.03;;;;;;;3.88;100.00;97554.06;5074990;28;20667;-74
2023/03/27 04:02:28;;;;;;;9.07;3.70;;;;;;;3.87;100.00;97556.91;5074887;28;20227;-75
2023/03/27 04:04:59;;;;;;;12.70;3.90;;;;;;;3.80;100.00;97561.28;5074614;28;20693;-75
2023/03/27 04:07:30;;;;;;;9.53;3.83;;;;;;;3.64;100.00;97572.88;5074879;28;20215;-72
2023/03/27 04:09:59;;;;;;;8.63;2.80;;;;;;;3.52;100.00;97587.50;5074895;28;20605;-74
2023/03/27 04:12:26;;;;;;;9.13;2.97;;;;;;;3.42;100.00;97586.97;5074662;28;20231;-75
2023/03/27 04:14:54;;;;;;;9.27;3.00;;;;;;;3.38;100.00;97601.50;5074820;28;20627;-74
2023/03/27 04:17:25;;;;;;;9.47;2.97;;;;;;;3.43;100.00;97612.25;5074930;28;20211;-75
2023/03/27 04:19:53;;;;;;;11.73;3.20;;;;;;;3.44;100.00;97607.81;5074999;28;20197;-74
2023/03/27 04:22:21;;;;;;;7.83;2.90;;;;;;;3.40;100.00;97619.69;5074029;28;20220;-75
2023/03/27 04:24:49;;;;;;;12.83;2.87;;;;;;;3.39;100.00;97616.25;5074997;28;20555;-75
2023/03/27 04:27:17;;;;;;;10.23;3.17;;;;;;;3.32;100.00;97639.00;5074670;28;20254;-75
2023/03/27 04:29:46;;;;;;;12.13;3.47;;;;;;;3.36;100.00;97636.81;5074683;28;20210;-75
2023/03/27 04:32:17;;;;;;;11.00;2.97;;;;;;;3.30;100.00;97648.88;5074407;28;20274;-75
2023/03/27 04:34:44;;;;;;;10.67;2.83;;;;;;;3.30;100.00;97651.50;5074610;28;20242;-75
2023/03/27 04:37:11;;;;;;;11.60;3.07;;;;;;;3.25;100.00;97660.94;5074495;28;20262;-76
2023/03/27 04:39:41;;;;;;;5.93;2.23;;;;;;;3.18;100.00;97663.50;5074498;28;20209;-75
2023/03/27 04:42:09;;;;;;;7.90;2.37;;;;;;;3.11;100.00;97667.03;5073999;28;20242;-74
2023/03/27 04:44:36;;;;;;;11.20;2.57;;;;;;;3.05;100.00;97668.56;5074224;28;20201;-73
2023/03/27 04:47:05;;;;;;;8.03;2.43;;;;;;;3.03;100.00;97682.88;5074436;28;20209;-74
2023/03/27 04:49:37;;;;;;;8.47;2.57;;;;;;;3.03;100.00;97688.13;5074094;28;20216;-74
2023/03/27 04:52:06;;;;;;;7.00;2.30;;;;;;;2.94;100.00;97697.06;5074588;28;20220;-74
2023/03/27 04:54:33;;;;;;;8.43;2.27;;;;;;;2.91;100.00;97702.69;5074011;28;20220;-72
2023/03/27 04:57:01;;;;;;;11.73;2.43;;;;;;;2.97;100.00;97704.56;5074117;28;20295;-74
2023/03/27 04:59:30;;;;;;;8.90;2.40;;;;;;;2.81;100.00;97702.94;5074068;28;20207;-74
2023/03/27 05:01:58;;;;;;;7.03;1.80;;;;;;;2.79;100.00;97725.09;5073812;28;20204;-74
2023/03/27 05:04:26;;;;;;;6.43;1.70;;;;;;;2.72;100.00;97726.81;5073541;28;20201;-73
2023/03/27 05:06:53;;;;;;;7.33;2.30;;;;;;;2.79;100.00;97732.97;5074062;28;20205;-74
2023/03/27 05:09:20;;;;;;;7.50;1.43;;;;;;;2.69;100.00;97741.09;5073755;28;20201;-73
2023/03/27 05:11:48;;;;;;;4.97;1.73;;;;;;;2.60;100.00;97755.28;5073648;28;20212;-72
2023/03/27 05:14:19;;;;;;;9.13;2.40;;;;;;;2.62;100.00;97757.75;5073551;28;20579;-73
2023/03/27 05:16:48;;;;;;;9.97;2.27;;;;;;;2.67;100.00;97766.69;5074119;28;20297;-73
2023/03/27 05:19:15;;;;;;;8.53;2.10;;;;;;;2.64;100.00;97776.75;5074405;28;20613;-73
2023/03/27 05:21:41;;;;;;;9.47;1.83;;;;;;;2.68;100.00;97791.97;5073540;28;20213;-74
2023/03/27 05:24:09;;;;;;;11.40;2.10;;;;;;;2.63;100.00;97796.09;5073891;28;20561;-73
2023/03/27 05:26:37;;;;;;;8.07;1.80;;;;;;;2.59;100.00;97806.16;5073418;28;20205;-73
2023/03/27 05:29:04;;;;;;;10.97;2.03;;;;;;;2.49;100.00;97808.16;5073360;28;20573;-74
2023/03/27 05:31:32;;;;;;;7.40;1.87;;;;;;;2.52;100.00;97822.75;5073412;28;20204;-75
2023/03/27 05:33:59;;;;;;;5.20;1.93;;;;;;;2.57;100.00;97825.69;5073003;28;20274;-74
2023/03/27 05:36:27;;;;;;;4.10;1.50;;;;;;;2.49;100.00;97830.97;5073257;28;20206;-74
2023/03/27 05:38:53;;;;;;;11.67;2.43;;;;;;;2.54;100.00;97833.91;5072870;28;20216;-74
2023/03/27 05:41:20;;;;;;;8.87;2.00;;;;;;;2.42;100.00;97838.72;5073419;28;20295;-74
2023/03/27 05:43:49;;;;;;;5.53;1.70;;;;;;;2.51;100.00;97840.31;5073173;28;20303;-72
2023/03/27 05:46:15;;;;;;;8.90;2.07;;;;;;;2.49;100.00;97857.22;5072925;28;20308;-72
2023/03/27 05:48:41;;;;;;;8.07;1.90;;;;;;;2.44;100.00;97854.28;5072813;28;20204;-73
2023/03/27 05:51:09;;;;;;;8.87;1.70;;;;;;;2.41;100.00;97854.63;5073042;28;20205;-74
2023/03/27 05:53:39;;;;;;;6.37;1.57;;;;;;;2.43;100.00;97871.03;5072980;28;20286;-73
2023/03/27 05:56:07;;;;;;;6.63;1.90;;;;;;;2.49;100.00;97862.47;5072751;28;20667;-72
2023/03/27 05:58:34;;;;;;;7.40;1.67;;;;;;;2.44;100.00;97872.66;5073516;28;20209;-74
2023/03/27 06:01:02;;;;;;;11.50;2.40;;;;;;;2.42;100.00;97874.63;5072932;28;20216;-73
2023/03/27 06:03:29;;;;;;;8.60;1.87;;;;;;;2.43;100.00;97876.28;5073141;28;20228;-74
2023/03/27 06:05:58;;;;;;;10.33;2.07;;;;;;;2.48;100.00;97873.94;5073034;28;20617;-74
2023/03/27 06:08:25;;;;;;;7.10;1.93;;;;;;;2.57;100.00;97891.28;5073002;28;20204;-74
2023/03/27 06:10:53;;;;;;;7.57;1.70;;;;;;;2.55;100.00;97891.44;5072382;28;20201;-73
2023/03/27 06:13:20;;;;;;;7.20;1.90;;;;;;;2.57;100.00;97899.16;5072806;28;20225;-74
2023/03/27 06:15:47;;;;;;;10.30;1.97;;;;;;;2.63;100.00;97901.06;5072607;28;20204;-74
2023/03/27 06:18:13;;;;;;;5.67;1.53;;;;;;;2.54;100.00;97904.72;5072902;28;20699;-74
2023/03/27 06:20:41;;;;;;;8.63;1.60;;;;;;;2.51;99.71;97929.50;5072516;28;20291;-75
2023/03/27 06:23:08;;;;;;;7.30;1.70;;;;;;;2.64;100.00;97928.94;5072467;28;20240;-75
2023/03/27 06:25:36;;;;;;;7.93;2.07;;;;;;;2.70;100.00;97934.31;5072704;28;20577;-75
2023/03/27 06:28:06;;;;;;;8.17;1.50;;;;;;;2.69;100.00;97942.38;5072408;28;20212;-75
2023/03/27 06:30:37;;;;;;;6.10;1.57;;;;;;;2.47;99.97;97949.22;5073141;28;20222;-75
2023/03/27 06:33:06;;;;;;;13.07;2.40;;;;;;;2.56;99.92;97963.09;5072426;28;20236;-75
2023/03/27 06:38:19;;;;;;;7.60;1.80;;;;;;;2.63;100.00;97967.50;5071241;28;20212;-75
2023/03/27 06:41:05;;;;;;;6.40;1.80;;;;;;;2.73;100.00;97985.66;5073727;28;20212;-76
2023/03/27 06:43:32;;;;;;;9.73;2.03;;;;;;;2.81;98.64;97983.00;5072651;28;20256;-74
2023/03/27 06:46:08;;;;;;;16.23;2.60;;;;;;;2.67;99.87;97984.53;5076312;28;20629;-75
2023/03/27 06:48:38;;;;;;;8.80;2.20;;;;;;;2.65;100.00;97985.69;5076347;28;20204;-75
2023/03/27 06:51:08;;;;;;;8.50;1.57;;;;;;;2.75;97.89;97996.81;5076349;28;20295;-75
2023/03/27 06:53:35;;;;;;;6.17;1.50;;;;;;;2.87;97.32;98019.06;5076470;28;20228;-72
2023/03/27 06:56:02;;;;;;;7.53;1.57;;;;;;;2.75;97.16;98009.94;5076262;28;20232;-74
2023/03/27 06:58:28;;;;;;;12.13;2.33;;;;;;;2.84;98.42;98024.66;5076258;28;20240;-74
2023/03/27 07:00:59;;;;;;;9.23;2.20;;;;;;;2.82;96.29;98027.47;5076623;28;20627;-74
2023/03/27 07:03:26;;;;;;;9.60;1.80;;;;;;;2.94;97.31;98026.06;5075559;28;20217;-73
2023/03/27 07:05:55;;;;;;;8.00;1.80;;;;;;;3.07;97.10;98036.84;5075666;28;20213;-74
2023/03/27 07:08:23;;;;;;;5.43;1.70;;;;;;;3.14;98.54;98031.72;5076219;28;20208;-76
2023/03/27 07:10:54;;;;;;;6.23;1.70;;;;;;;3.19;92.53;98045.13;5076191;28;20209;-74
2023/03/27 07:13:21;;;;;;;7.63;1.80;;;;;;;3.11;99.02;98045.22;5075983;28;20260;-76
2023/03/27 07:15:47;;;;;;;11.93;1.77;;;;;;;3.34;96.45;98046.84;5075864;28;20687;-74
2023/03/27 07:18:14;;;;;;;4.27;1.47;;;;;;;3.29;93.90;98061.53;5075979;28;20402;-75
2023/03/27 07:20:43;;;;;;;7.63;1.70;;;;;;;3.23;93.99;98056.94;5076142;28;20246;-75
2023/03/27 07:23:10;;;;;;;9.30;2.10;;;;;;;3.25;94.21;98052.34;5075626;28;20310;-75
2023/03/27 07:25:38;;;;;;;7.43;1.60;;;;;;;3.29;92.04;98061.53;5075365;28;20215;-73
2023/03/27 07:28:08;;;;;;;10.90;1.80;;;;;;;3.25;91.46;98060.22;5075917;28;20208;-75
2023/03/27 07:30:36;;;;;;;5.43;2.10;;;;;;;3.41;93.71;98070.63;5075592;28;20279;-75
2023/03/27 07:33:08;;;;;;;9.87;2.27;;;;;;;3.41;90.93;98081.97;5075597;28;20322;-74
2023/03/27 07:35:35;;;;;;;8.43;1.50;;;;;;;3.54;87.99;98084.00;5075389;28;20185;-75
2023/03/27 07:38:03;;;;;;;8.03;1.87;;;;;;;3.56;89.52;98087.28;5075733;28;20205;-75
2023/03/27 07:40:32;;;;;;;5.23;1.57;;;;;;;3.48;88.24;98092.59;5075679;28;20303;-74
2023/03/27 07:42:59;;;;;;;6.20;1.67;;;;;;;3.44;87.02;98102.63;5075602;28;20229;-74
2023/03/27 07:45:29;;;;;;;5.77;1.10;;;;;;;3.17;85.69;98087.34;5075199;28;20660;-71
2023/03/27 07:48:05;;;;;;;5.03;1.33;;;;;;;3.20;85.62;98105.38;5075684;28;20270;-74
2023/03/27 07:50:32;;;;;;;9.90;1.80;;;;;;;3.35;90.74;98113.38;5075475;28;20188;-75
2023/03/27 07:52:59;;;;;;;5.63;1.40;;;;;;;3.35;87.06;98118.63;5075332;28;20232;-75
2023/03/27 07:55:28;;;;;;;4.50;1.53;;;;;;;3.53;84.94;98137.59;5074299;28;20311;-75
2023/03/27 07:57:55;;;;;;;8.27;1.97;;;;;;;3.62;83.58;98139.16;5075004;28;20204;-76
2023/03/27 08:00:23;;;;;;;8.63;1.90;;;;;;;3.58;87.90;98130.81;5075290;28;20215;-75
2023/03/27 08:02:50;;;;;;;8.03;1.70;;;;;;;3.72;83.90;98137.13;5074985;28;20598;-73
2023/03/27 08:05:18;;;;;;;5.20;1.53;;;;;;;3.64;83.28;98148.53;5075242;28;20291;-73
2023/03/27 08:07:46;;;;;;;5.90;1.03;;;;;;;3.60;81.67;98152.47;5075193;28;20212;-73
2023/03/27 08:10:13;;;;;;;7.47;1.60;;;;;;;3.37;83.77;98164.75;5075086;28;20201;-75
2023/03/27 08:12:39;;;;;;;8.40;1.80;;;;;;;3.31;83.97;98164.63;5074878;28;20227;-73
2023/03/27 08:15:08;;;;;;;8.77;1.70;;;;;;;3.29;85.88;98170.03;5074454;28;20217;-73
2023/03/27 08:17:34;;;;;;;5.50;1.60;;;;;;;3.35;83.66;98173.81;5075247;28;20205;-75
2023/03/27 08:20:08;;;;;;;6.03;1.80;;;;;;;3.40;80.96;98182.81;5074740;28;20215;-74
2023/03/27 08:22:38;;;;;;;6.77;1.70;;;;;;;3.47;79.88;98182.94;5074526;28;20743;-74
2023/03/27 08:25:07;;;;;;;5.07;1.27;;;;;;;3.40;80.46;98195.13;5074609;28;20554;-74
2023/03/27 08:27:33;;;;;;;6.87;1.40;;;;;;;3.49;79.72;98197.56;5074678;28;20204;-75
2023/03/27 08:30:10;;;;;;;7.67;1.37;;;;;;;3.69;78.97;98200.56;5075397;28;20227;-75
2023/03/27 08:32:39;;;;;;;7.50;1.40;;;;;;;3.48;76.79;98203.00;5074734;28;20243;-75
2023/03/27 08:35:06;;;;;;;4.83;1.60;;;;;;;3.68;78.98;98205.03;5074367;28;20734;-75
2023/03/27 08:37:42;;;;;;;6.07;1.83;;;;;;;3.91;78.93;98199.78;5074950;28;20205;-74
2023/03/27 08:40:32;;;;;;;6.13;1.80;;;;;;;3.99;77.75;98207.63;5074168;28;20227;-75
2023/03/27 08:43:06;;;;;;;3.60;1.30;;;;;;;4.15;79.11;98208.34;5074193;28;20311;-75
2023/03/27 08:45:45;;;;;;;2.60;1.37;;;;;;;4.24;73.84;98201.19;5074352;28;20679;-75
2023/03/27 08:48:20;;;;;;;4.37;1.37;;;;;;;4.17;75.89;98223.97;5074446;28;20271;-74
2023/03/27 08:50:56;;;;;;;6.90;1.60;;;;;;;4.23;74.13;98225.88;5074726;28;20192;-74
2023/03/27 08:53:38;;;;;;;4.73;1.23;;;;;;;4.12;70.68;98228.94;5074276;28;20281;-74
2023/03/27 08:56:05;;;;;;;4.47;1.43;;;;;;;4.21;71.55;98233.16;5056566;28;20216;-75
2023/03/27 08:58:33;;;;;;;5.73;1.43;;;;;;;4.42;72.43;98242.03;5074135;28;20299;-72
2023/03/27 09:01:08;;;;;;;5.10;1.30;;;;;;;4.21;70.61;98243.66;5073939;28;20251;-74
2023/03/27 09:03:46;;;;;;;7.50;1.37;;;;;;;4.34;71.16;98239.44;5073920;28;20238;-75
2023/03/27 09:06:26;;;;;;;6.70;1.60;;;;;;;4.53;70.33;98248.72;5072800;28;20193;-75
2023/03/27 09:08:57;;;;;;;3.90;1.30;;;;;;;4.70;69.15;98255.50;5073682;28;20195;-74
2023/03/27 09:11:41;;;;;;;4.97;1.50;;;;;;;4.46;69.38;98260.91;5073881;28;20254;-75
2023/03/27 09:14:20;;;;;;;3.63;1.20;;;;;;;4.61;69.32;98259.19;5073486;28;20232;-75
2023/03/27 09:16:49;;;;;;;5.53;1.50;;;;;;;4.84;69.83;98260.78;5073319;28;20200;-76
2023/03/27 09:19:23;;;;;;;8.50;1.40;;;;;;;5.05;70.80;98273.28;5073498;28;20286;-76
2023/03/27 09:22:04;;;;;;;4.47;1.20;;;;;;;4.73;66.69;98276.19;5055765;28;20196;-75
2023/03/27 09:24:39;;;;;;;4.40;1.40;;;;;;;4.81;67.10;98270.84;5073799;28;20239;-75
2023/03/27 09:27:20;;;;;;;7.80;1.50;;;;;;;4.77;66.44;98266.94;5073578;28;20635;-75
2023/03/27 09:30:13;;;;;;;7.07;1.80;;;;;;;4.80;69.09;98274.50;5073692;28;20188;-78
2023/03/27 09:32:41;;;;;;;3.43;1.20;;;;;;;4.89;69.79;98274.22;5062919;28;20319;-78
2023/03/27 09:35:14;;;;;;;7.70;2.10;;;;;;;4.88;69.28;98285.78;5073524;28;20224;-79
2023/03/27 09:37:41;;;;;;;5.70;1.23;;;;;;;5.27;66.32;98285.56;5073742;28;20572;-78
2023/03/27 09:40:23;;;;;;;4.10;1.57;;;;;;;5.35;67.58;98288.13;5073623;28;20208;-78
2023/03/27 09:42:53;;;;;;;4.77;1.20;;;;;;;5.46;64.30;98290.31;5056820;28;20224;-78
2023/03/27 09:45:20;;;;;;;4.33;1.43;;;;;;;5.19;65.05;98288.28;5073003;28;20185;-78
2023/03/27 09:48:00;;;;;;;6.20;1.40;;;;;;;5.42;66.37;98296.97;5072955;28;20212;-78
2023/03/27 09:50:43;;;;;;;2.73;0.93;;;;;;;5.51;61.25;98295.84;5073582;28;20241;-76
2023/03/27 09:53:17;;;;;;;4.70;1.40;;;;;;;5.98;65.80;98294.50;5073300;28;20232;-76
2023/03/27 09:55:49;;;;;;;5.73;1.23;;;;;;;6.00;62.54;98307.53;5073185;28;20572;-76
2023/03/27 09:58:23;;;;;;;6.10;1.40;;;;;;;5.46;62.27;98316.69;5072895;28;20643;-77
2023/03/27 10:01:06;;;;;;;8.50;1.40;;;;;;;5.85;61.67;98325.19;5073896;28;20276;-77
2023/03/27 10:03:47;;;;;;;3.40;1.37;;;;;;;5.58;60.45;98316.06;5072996;28;20311;-78
2023/03/27 10:06:16;;;;;;;4.63;1.10;;;;;;;5.10;60.32;98327.06;5072986;28;20651;-78
2023/03/27 10:08:49;;;;;;;3.03;1.20;;;;;;;5.31;61.48;98318.50;5072867;28;20208;-77
2023/03/27 10:11:19;;;;;;;3.70;1.40;;;;;;;5.58;61.40;98318.72;5072802;28;20585;-76
2023/03/27 10:13:47;;;;;;;4.13;1.53;;;;;;;5.95;62.17;98317.81;5073005;28;20228;-75
2023/03/27 10:16:16;;;;;;;3.63;1.27;;;;;;;6.01;63.62;98327.66;5073102;28;20224;-75
2023/03/27 10:18:47;;;;;;;4.70;1.47;;;;;;;5.75;60.94;98324.63;5072164;28;20201;-74
2023/03/27 10:21:25;;;;;;;6.80;1.37;;;;;;;5.92;63.88;98324.28;5076950;28;20195;-76
2023/03/27 10:24:00;;;;;;;3.90;1.10;;;;;;;6.08;56.75;98333.81;5077162;28;20235;-76
2023/03/27 10:26:27;;;;;;;4.23;1.53;;;;;;;6.11;56.73;98336.09;5076988;28;20188;-75
2023/03/27 10:29:06;;;;;;;3.53;1.20;;;;;;;5.63;59.52;98324.25;5076677;28;20209;-75
2023/03/27 10:31:38;;;;;;;4.93;1.70;;;;;;;5.46;57.35;98335.13;5077444;28;20184;-75
2023/03/27 10:34:07;;;;;;;4.50;1.10;;;;;;;5.61;56.03;98331.53;5076427;28;20333;-73
2023/03/27 10:36:37;;;;;;;3.70;1.17;;;;;;;5.76;57.01;98339.44;5076944;28;20204;-75
2023/03/27 10:39:11;;;;;;;5.73;1.53;;;;;;;5.82;54.92;98338.75;5076233;28;20694;-74
2023/03/27 10:41:39;;;;;;;4.13;1.20;;;;;;;5.74;58.23;98336.19;5076354;28;20666;-75
2023/03/27 10:44:24;;;;;;;5.77;1.10;;;;;;;5.87;55.62;98339.84;5059063;28;20234;-75
2023/03/27 10:46:52;;;;;;;6.50;1.60;;;;;;;5.84;53.64;98342.03;5076356;28;20212;-76
2023/03/27 10:49:45;;;;;;;3.50;1.17;;;;;;;6.23;61.20;98339.88;5076641;28;20211;-75
2023/03/27 10:52:19;;;;;;;3.60;1.10;;;;;;;6.40;52.73;98347.44;5076544;28;20225;-76
2023/03/27 10:55:03;;;;;;;5.23;1.53;;;;;;;6.79;54.15;98336.47;5076114;28;20207;-75
2023/03/27 10:57:33;;;;;;;5.57;1.20;;;;;;;7.07;52.06;98340.00;5076454;28;20192;-76
2023/03/27 11:00:19;;;;;;;8.03;1.40;;;;;;;6.49;53.89;98333.13;5076317;28;20232;-73
2023/03/27 11:02:57;;;;;;;4.43;1.30;;;;;;;6.18;56.01;98344.91;5076249;28;20224;-75
2023/03/27 11:05:29;;;;;;;3.27;1.20;;;;;;;6.32;58.18;98347.53;5076481;28;20185;-74
2023/03/27 11:08:11;;;;;;;4.43;1.40;;;;;;;6.06;54.54;98357.75;5075914;28;20193;-74
2023/03/27 11:10:45;;;;;;;8.90;1.83;;;;;;;6.52;56.64;98353.06;5075989;28;20532;-74
2023/03/27 11:13:25;;;;;;;3.40;1.10;;;;;;;6.37;53.03;98365.44;5075846;28;20223;-75
2023/03/27 11:16:05;;;;;;;3.57;1.17;;;;;;;6.16;56.86;98360.13;5075807;28;20244;-74
2023/03/27 11:18:39;;;;;;;5.53;1.37;;;;;;;5.95;56.47;98363.50;5076067;28;20211;-73
2023/03/27 11:21:13;;;;;;;2.90;1.13;;;;;;;5.88;53.55;98373.13;5076099;28;20221;-74
2023/03/27 11:23:46;;;;;;;3.33;1.20;;;;;;;6.34;54.14;98366.63;5075812;28;20235;-75
2023/03/27 11:26:15;;;;;;;2.43;0.93;;;;;;;6.48;55.63;98359.69;5075607;28;20189;-74
2023/03/27 11:28:56;;;;;;;4.90;1.20;;;;;;;6.40;53.59;98370.38;5075776;28;20258;-74
2023/03/27 11:31:45;;;;;;;5.00;1.30;;;;;;;6.35;52.92;98372.75;5075307;28;20632;-74
2023/03/27 11:34:21;;;;;;;3.63;1.00;;;;;;;6.48;53.53;98383.47;5075553;28;20304;-74
2023/03/27 11:37:03;;;;;;;5.30;1.30;;;;;;;6.05;57.73;98392.25;5075745;28;20200;-74
2023/03/27 11:39:51;;;;;;;6.33;1.63;;;;;;;5.76;59.82;98393.03;5075497;28;20271;-73
2023/03/27 11:42:26;;;;;;;5.23;1.63;;;;;;;5.55;60.98;98397.34;5075661;28;20221;-74
2023/03/27 11:44:53;;;;;;;6.90;1.70;;;;;;;6.01;59.09;98393.63;5075578;28;20184;-75
2023/03/27 11:47:43;;;;;;;3.93;1.70;;;;;;;5.55;58.98;98398.19;5075614;28;20204;-74
2023/03/27 11:50:18;;;;;;;3.33;1.07;;;;;;;5.99;57.85;98398.25;5064867;28;20215;-75
2023/03/27 11:52:53;;;;;;;4.83;1.33;;;;;;;5.89;56.94;98387.97;5075432;28;20227;-74
2023/03/27 11:55:32;;;;;;;3.67;1.10;;;;;;;6.31;55.40;98384.69;5075190;28;20599;-74
2023/03/27 11:58:28;;;;;;;8.73;1.63;;;;;;;6.46;56.57;98393.38;5075328;28;20205;-75
2023/03/27 12:01:15;;;;;;;5.27;1.17;;;;;;;6.61;55.52;98379.16;5075373;28;20217;-74
2023/03/27 12:04:04;;;;;;;3.97;1.47;;;;;;;6.80;58.20;98393.59;5075385;28;20224;-74